createdAt,value
2018-11-03T00:02:05.130Z,2.7
2018-11-03T00:05:05.055Z,2.7
2018-11-03T00:08:05.453Z,2.7
2018-11-03T00:11:05.074Z,2.7
2018-11-03T00:14:05.358Z,2.7
2018-11-03T00:17:05.477Z,2.7
2018-11-03T00:20:05.511Z,2.7
2018-11-03T00:23:05.027Z,2.7
2018-11-03T00:26:08.397Z,2.7
2018-11-03T00:29:05.160Z,2.7
2018-11-03T00:32:05.460Z,2.7
2018-11-03T00:35:05.169Z,2.7
2018-11-03T00:38:05.038Z,2.7
2018-11-03T00:41:05.343Z,2.7
2018-11-03T00:44:04.970Z,2.7
2018-11-03T00:47:05.048Z,2.7
2018-11-03T00:50:05.821Z,2.7
2018-11-03T00:53:05.880Z,2.7
2018-11-03T00:56:08.223Z,2.7
2018-11-03T00:59:05.052Z,2.7
2018-11-03T01:02:05.426Z,2.7
2018-11-03T01:05:05.168Z,2.7
2018-11-03T01:08:05.300Z,2.7
2018-11-03T01:11:05.240Z,2.7
2018-11-03T01:14:05.199Z,2.7
2018-11-03T01:17:05.126Z,2.7
2018-11-03T01:20:05.591Z,2.7
2018-11-03T01:23:05.202Z,2.7
2018-11-03T01:26:04.941Z,2.7
2018-11-03T01:29:04.996Z,2.7
2018-11-03T01:32:05.206Z,2.7
2018-11-03T01:35:05.096Z,2.7
2018-11-03T01:38:04.992Z,2.7
2018-11-03T01:41:05.210Z,2.7
2018-11-03T01:44:05.133Z,2.7
2018-11-03T01:47:05.426Z,2.7
2018-11-03T01:50:05.357Z,2.7
2018-11-03T01:53:05.516Z,2.7
2018-11-03T01:56:08.632Z,2.7
2018-11-03T01:59:05.136Z,2.7
2018-11-03T02:02:05.170Z,2.6
2018-11-03T02:05:05.332Z,2.6
2018-11-03T02:08:05.472Z,2.6
2018-11-03T02:11:05.062Z,2.6
2018-11-03T02:14:04.978Z,2.6
2018-11-03T02:17:05.150Z,2.6
2018-11-03T02:20:05.310Z,2.6
2018-11-03T02:23:05.162Z,2.6
2018-11-03T02:26:05.482Z,2.6
2018-11-03T02:29:05.365Z,2.6
2018-11-03T02:32:05.794Z,2.6
2018-11-03T02:35:05.176Z,2.6
2018-11-03T02:38:05.727Z,2.6
2018-11-03T02:41:05.157Z,2.6
2018-11-03T02:44:04.976Z,2.6
2018-11-03T02:47:08.590Z,2.6
2018-11-03T02:50:05.675Z,2.6
2018-11-03T02:53:05.107Z,2.6
2018-11-03T02:56:05.245Z,2.6
2018-11-03T02:59:05.142Z,2.6
2018-11-03T03:02:05.212Z,2.6
2018-11-03T03:05:05.484Z,2.6
2018-11-03T03:08:04.939Z,2.6
2018-11-03T03:11:05.182Z,2.6
2018-11-03T03:14:05.320Z,2.6
2018-11-03T03:17:08.188Z,2.6
2018-11-03T03:20:05.217Z,2.6
2018-11-03T03:23:05.090Z,2.6
2018-11-03T03:26:05.608Z,2.6
2018-11-03T03:29:07.951Z,2.6
2018-11-03T03:32:05.255Z,2.6
2018-11-03T03:35:05.173Z,2.6
2018-11-03T03:38:05.508Z,2.6
2018-11-03T03:41:05.282Z,2.6
2018-11-03T03:44:05.517Z,2.6
2018-11-03T03:47:08.814Z,2.6
2018-11-03T03:50:05.128Z,2.6
2018-11-03T03:53:04.989Z,2.6
2018-11-03T03:56:05.145Z,2.6
2018-11-03T03:59:05.125Z,2.6
2018-11-03T04:02:05.118Z,2.5
2018-11-03T04:05:05.195Z,2.5
2018-11-03T04:08:05.144Z,2.5
2018-11-03T04:11:05.205Z,2.5
2018-11-03T04:14:04.818Z,2.5
2018-11-03T04:17:05.054Z,2.5
2018-11-03T04:20:05.136Z,2.5
2018-11-03T04:23:05.342Z,2.5
2018-11-03T04:26:08.478Z,2.5
2018-11-03T04:29:05.093Z,2.5
2018-11-03T04:32:05.177Z,2.5
2018-11-03T04:35:05.178Z,2.5
2018-11-03T04:38:05.182Z,2.5
2018-11-03T04:41:04.971Z,2.5
2018-11-03T04:44:05.096Z,2.5
2018-11-03T04:47:05.028Z,2.5
2018-11-03T04:50:04.924Z,2.5
2018-11-03T04:53:05.483Z,2.5
2018-11-03T04:56:05.307Z,2.5
2018-11-03T04:59:05.346Z,2.5
2018-11-03T05:02:04.897Z,2.5
2018-11-03T05:05:04.974Z,2.5
2018-11-03T05:08:05.212Z,2.5
2018-11-03T05:11:05.416Z,2.5
2018-11-03T05:14:04.911Z,2.5
2018-11-03T05:17:05.690Z,2.5
2018-11-03T05:20:05.107Z,2.5
2018-11-03T05:23:05.260Z,2.5
2018-11-03T05:26:05.107Z,2.5
2018-11-03T05:29:05.083Z,2.5
2018-11-03T05:32:05.097Z,2.5
2018-11-03T05:35:05.194Z,2.5
2018-11-03T05:38:05.113Z,2.5
2018-11-03T05:41:05.094Z,2.5
2018-11-03T05:44:05.204Z,2.5
2018-11-03T05:47:05.254Z,2.5
2018-11-03T05:50:04.942Z,2.5
2018-11-03T05:53:05.102Z,2.5
2018-11-03T05:56:07.399Z,2.5
2018-11-03T05:59:07.111Z,2.5
2018-11-03T06:02:05.023Z,2.5
2018-11-03T06:05:05.124Z,2.5
2018-11-03T06:08:04.969Z,2.5
2018-11-03T06:11:05.061Z,2.5
2018-11-03T06:14:05.219Z,2.5
2018-11-03T06:17:04.935Z,2.5
2018-11-03T06:20:04.972Z,2.5
2018-11-03T06:23:07.190Z,2.5
2018-11-03T06:26:05.756Z,2.5
2018-11-03T06:29:05.252Z,2.5
2018-11-03T06:32:05.005Z,2.5
2018-11-03T06:35:07.317Z,2.5
2018-11-03T06:38:05.001Z,2.5
2018-11-03T06:41:04.975Z,2.5
2018-11-03T06:44:04.880Z,2.5
2018-11-03T06:47:05.452Z,2.5
2018-11-03T06:50:05.189Z,2.5
2018-11-03T06:53:05.396Z,2.5
2018-11-03T06:56:04.908Z,2.5
2018-11-03T06:59:05.273Z,2.5
2018-11-03T07:02:05.174Z,2.5
2018-11-03T07:05:06.684Z,2.5
2018-11-03T07:08:05.392Z,2.5
2018-11-03T07:11:04.937Z,2.5
2018-11-03T07:14:04.996Z,2.5
2018-11-03T07:17:09.196Z,2.5
2018-11-03T07:20:05.269Z,2.5
2018-11-03T07:23:05.201Z,2.5
2018-11-03T07:26:07.077Z,2.5
2018-11-03T07:29:04.803Z,2.5
2018-11-03T07:32:05.025Z,2.5
2018-11-03T07:35:05.472Z,2.5
2018-11-03T07:38:04.868Z,2.5
2018-11-03T07:41:07.894Z,2.5
2018-11-03T07:44:05.061Z,2.5
2018-11-03T07:47:05.103Z,2.5
2018-11-03T07:50:05.003Z,2.5
2018-11-03T07:53:05.167Z,2.5
2018-11-03T07:56:04.987Z,2.5
2018-11-03T07:59:05.211Z,2.5
2018-11-03T08:02:05.055Z,2.4
2018-11-03T08:05:05.401Z,2.4
2018-11-03T08:08:04.832Z,2.4
2018-11-03T08:11:05.564Z,2.4
2018-11-03T08:14:06.257Z,2.4
2018-11-03T08:17:05.521Z,2.4
2018-11-03T08:20:05.051Z,2.4
2018-11-03T08:23:04.907Z,2.4
2018-11-03T08:26:05.135Z,2.4
2018-11-03T08:29:05.385Z,2.4
2018-11-03T08:32:04.754Z,2.4
2018-11-03T08:35:04.943Z,2.4
2018-11-03T08:38:05.271Z,2.4
2018-11-03T08:41:04.956Z,2.4
2018-11-03T08:44:05.083Z,2.4
2018-11-03T08:47:04.922Z,2.4
2018-11-03T08:50:05.054Z,2.4
2018-11-03T08:53:05.314Z,2.4
2018-11-03T08:56:04.843Z,2.4
2018-11-03T08:59:05.629Z,2.4
2018-11-03T09:02:04.957Z,2.4
2018-11-03T09:05:05.921Z,2.4
2018-11-03T09:08:05.407Z,2.4
2018-11-03T09:11:04.947Z,2.4
2018-11-03T09:14:04.915Z,2.4
2018-11-03T09:17:05.017Z,2.4
2018-11-03T09:20:04.863Z,2.4
2018-11-03T09:23:04.956Z,2.4
2018-11-03T09:26:08.277Z,2.4
2018-11-03T09:29:04.989Z,2.4
2018-11-03T09:32:06.950Z,2.4
2018-11-03T09:35:04.847Z,2.4
2018-11-03T09:38:04.833Z,2.4
2018-11-03T09:41:04.981Z,2.4
2018-11-03T09:44:04.662Z,2.4
2018-11-03T09:47:04.860Z,2.4
2018-11-03T09:50:04.947Z,2.4
2018-11-03T09:53:04.971Z,2.4
2018-11-03T09:56:06.855Z,2.4
2018-11-03T09:59:04.906Z,2.4
2018-11-03T10:02:05.188Z,2.5
2018-11-03T10:05:05.342Z,2.5
2018-11-03T10:08:04.596Z,2.5
2018-11-03T10:11:04.965Z,2.5
2018-11-03T10:14:05.676Z,2.5
2018-11-03T10:17:05.828Z,2.5
2018-11-03T10:20:04.694Z,2.5
2018-11-03T10:23:08.037Z,2.5
2018-11-03T10:26:05.253Z,2.5
2018-11-03T10:29:05.108Z,2.5
2018-11-03T10:32:05.148Z,2.5
2018-11-03T10:35:04.802Z,2.5
2018-11-03T10:38:05.032Z,2.5
2018-11-03T10:41:04.716Z,2.5
2018-11-03T10:44:04.724Z,2.5
2018-11-03T10:47:08.117Z,2.5
2018-11-03T10:50:04.816Z,2.5
2018-11-03T10:53:04.999Z,2.5
2018-11-03T10:56:04.713Z,2.5
2018-11-03T10:59:04.837Z,2.5
2018-11-03T11:02:04.829Z,2.6
2018-11-03T11:05:04.903Z,2.6
2018-11-03T11:08:04.764Z,2.6
2018-11-03T11:11:05.372Z,2.6
2018-11-03T11:14:06.767Z,2.6
2018-11-03T11:17:08.034Z,2.6
2018-11-03T11:20:05.367Z,2.6
2018-11-03T11:23:04.830Z,2.6
2018-11-03T11:26:05.093Z,2.6
2018-11-03T11:29:04.934Z,2.6
2018-11-03T11:32:06.087Z,2.6
2018-11-03T11:35:04.910Z,2.6
2018-11-03T11:38:04.869Z,2.6
2018-11-03T11:41:05.198Z,2.6
2018-11-03T11:44:04.944Z,2.6
2018-11-03T11:47:04.944Z,2.6
2018-11-03T11:50:05.241Z,2.6
2018-11-03T11:53:04.773Z,2.6
2018-11-03T11:56:05.243Z,2.6
2018-11-03T11:59:05.252Z,2.6
2018-11-03T12:02:06.272Z,2.7
2018-11-03T12:05:05.628Z,2.7
2018-11-03T12:08:04.748Z,2.7
2018-11-03T12:11:04.888Z,2.7
2018-11-03T12:14:04.701Z,2.7
2018-11-03T12:17:08.188Z,2.7
2018-11-03T12:20:04.881Z,2.7
2018-11-03T12:23:06.092Z,2.7
2018-11-03T12:26:04.930Z,2.7
2018-11-03T12:29:05.228Z,2.7
2018-11-03T12:32:04.970Z,2.7
2018-11-03T12:35:04.882Z,2.7
2018-11-03T12:38:05.167Z,2.7
2018-11-03T12:41:05.941Z,2.7
2018-11-03T12:44:05.031Z,2.7
2018-11-03T12:47:08.101Z,2.7
2018-11-03T12:50:05.116Z,2.7
2018-11-03T12:53:05.248Z,2.7
2018-11-03T12:56:05.222Z,2.7
2018-11-03T12:59:06.751Z,2.7
2018-11-03T13:02:05.156Z,2.8
2018-11-03T13:05:07.358Z,2.8
2018-11-03T13:08:04.924Z,2.8
2018-11-03T13:11:04.999Z,2.8
2018-11-03T13:14:04.897Z,2.8
2018-11-03T13:17:05.051Z,2.8
2018-11-03T13:20:05.357Z,2.8
2018-11-03T13:23:04.922Z,2.8
2018-11-03T13:26:05.096Z,2.8
2018-11-03T13:29:05.147Z,2.8
2018-11-03T13:32:04.580Z,2.8
2018-11-03T13:35:07.561Z,2.8
2018-11-03T13:38:04.862Z,2.8
2018-11-03T13:41:05.044Z,2.8
2018-11-03T13:44:05.209Z,2.8
2018-11-03T13:47:05.469Z,2.8
2018-11-03T13:50:04.854Z,2.8
2018-11-03T13:53:05.158Z,2.8
2018-11-03T13:56:04.986Z,2.8
2018-11-03T13:59:04.951Z,2.8
2018-11-03T14:02:04.762Z,2.8
2018-11-03T14:05:04.656Z,2.8
2018-11-03T15:01:13.311Z,10.1
2018-11-03T15:04:12.774Z,10.1
2018-11-03T15:07:12.860Z,10.1
2018-11-03T15:10:12.703Z,10.1
2018-11-03T15:13:12.973Z,10.1
2018-11-03T15:16:12.856Z,10.1
2018-11-03T15:19:12.967Z,10.1
2018-11-03T15:22:13.760Z,10.1
2018-11-03T15:25:13.075Z,10.1
2018-11-03T15:28:12.883Z,10.1
2018-11-03T15:31:12.967Z,10.1
2018-11-03T15:34:12.904Z,10.1
2018-11-03T15:37:12.933Z,10.1
2018-11-03T15:40:12.847Z,10.1
2018-11-03T15:43:14.089Z,10.1
2018-11-03T15:46:12.867Z,10.1
2018-11-03T15:49:13.337Z,10.1
2018-11-03T15:52:12.994Z,10.1
2018-11-03T15:55:12.813Z,10.1
2018-11-03T15:58:12.786Z,10.1
2018-11-03T16:01:12.974Z,7.6
2018-11-03T16:04:13.179Z,7.6
2018-11-03T16:07:12.953Z,7.6
2018-11-03T16:10:12.994Z,7.6
2018-11-03T16:13:12.952Z,7.6
2018-11-03T16:16:12.838Z,7.6
2018-11-03T16:19:12.825Z,7.6
2018-11-03T16:22:13.573Z,7.6
2018-11-03T16:25:13.121Z,7.6
2018-11-03T16:28:13.602Z,7.6
2018-11-03T16:31:13.008Z,7.6
2018-11-03T16:34:12.947Z,7.6
2018-11-03T16:37:12.831Z,7.6
2018-11-03T16:40:12.871Z,7.6
2018-11-03T16:43:12.848Z,7.6
2018-11-03T16:46:12.860Z,7.6
2018-11-03T16:49:12.932Z,7.6
2018-11-03T16:52:12.701Z,7.6
2018-11-03T16:55:13.720Z,7.6
2018-11-03T16:58:12.855Z,7.6
2018-11-03T17:01:12.851Z,6.8
2018-11-03T17:04:12.844Z,6.8
2018-11-03T17:07:12.779Z,6.8
2018-11-03T17:10:14.442Z,6.8
2018-11-03T17:13:13.512Z,6.8
2018-11-03T17:16:12.891Z,6.8
2018-11-03T17:19:12.821Z,6.8
2018-11-03T17:22:12.868Z,6.8
2018-11-03T17:25:15.549Z,6.8
2018-11-03T17:28:12.690Z,6.8
2018-11-03T17:31:13.982Z,6.8
2018-11-03T17:34:13.009Z,6.8
2018-11-03T17:37:13.051Z,6.8
2018-11-03T17:40:12.977Z,6.8
2018-11-03T17:43:13.908Z,6.8
2018-11-03T17:46:13.136Z,6.8
2018-11-03T17:49:12.843Z,6.8
2018-11-03T17:52:12.890Z,6.8
2018-11-03T17:55:12.918Z,6.8
2018-11-03T17:58:12.648Z,6.8
2018-11-03T18:01:15.912Z,6
2018-11-03T18:04:12.763Z,6
2018-11-03T18:07:12.810Z,6
2018-11-03T18:10:12.834Z,6
2018-11-03T18:13:14.987Z,6
2018-11-03T18:16:12.973Z,6
2018-11-03T18:19:12.816Z,6
2018-11-03T18:22:12.863Z,6
2018-11-03T18:25:12.814Z,6
2018-11-03T18:28:12.632Z,6
2018-11-03T18:31:12.877Z,6
2018-11-03T18:34:13.863Z,6
2018-11-03T18:37:12.891Z,6
2018-11-03T18:40:12.816Z,6
2018-11-03T18:43:13.336Z,6
2018-11-03T18:46:12.957Z,6
2018-11-03T18:49:13.037Z,6
2018-11-03T18:52:12.797Z,6
2018-11-03T18:55:12.817Z,6
2018-11-03T18:58:12.848Z,6
2018-11-03T19:01:12.932Z,5.4
2018-11-03T19:04:13.083Z,5.4
2018-11-03T19:07:12.675Z,5.4
2018-11-03T19:10:13.014Z,5.4
2018-11-03T19:13:15.355Z,5.4
2018-11-03T19:16:13.068Z,5.4
2018-11-03T19:19:12.977Z,5.4
2018-11-03T19:22:13.247Z,5.4
2018-11-03T19:25:12.915Z,5.4
2018-11-03T19:28:13.359Z,5.4
2018-11-03T19:31:12.625Z,5.4
2018-11-03T19:34:12.693Z,5.4
2018-11-03T19:37:12.793Z,5.4
2018-11-03T19:40:12.847Z,5.4
2018-11-03T19:43:14.905Z,5.4
2018-11-03T19:46:12.803Z,5.4
2018-11-03T19:49:12.810Z,5.4
2018-11-03T19:52:12.586Z,5.4
2018-11-03T19:55:13.105Z,5.4
2018-11-03T19:58:12.928Z,5.4
2018-11-03T20:01:13.147Z,4.9
2018-11-03T20:04:12.757Z,4.9
2018-11-03T20:07:12.836Z,4.9
2018-11-03T20:10:15.641Z,4.9
2018-11-03T20:13:13.063Z,4.9
2018-11-03T20:16:13.075Z,4.9
2018-11-03T20:19:13.122Z,4.9
2018-11-03T20:22:12.579Z,4.9
2018-11-03T20:25:13.133Z,4.9
2018-11-03T20:28:12.594Z,4.9
2018-11-03T20:31:12.922Z,4.9
2018-11-03T20:34:12.965Z,4.9
2018-11-03T20:37:12.793Z,4.9
2018-11-03T20:40:12.779Z,4.9
2018-11-03T20:43:12.805Z,4.9
2018-11-03T20:46:13.184Z,4.9
2018-11-03T20:49:12.840Z,4.9
2018-11-03T20:52:12.839Z,4.9
2018-11-03T20:55:12.905Z,4.9
2018-11-03T20:58:12.702Z,4.9
2018-11-03T21:01:12.587Z,4.8
2018-11-03T21:04:12.724Z,4.8
2018-11-03T21:07:12.907Z,4.8
2018-11-03T21:10:12.924Z,4.8
2018-11-03T21:13:12.953Z,4.8
2018-11-03T21:16:13.240Z,4.8
2018-11-03T21:19:12.889Z,4.8
2018-11-03T21:22:13.384Z,4.8
2018-11-03T21:25:12.941Z,4.8
2018-11-03T21:28:13.119Z,4.8
2018-11-03T21:31:13.296Z,4.8
2018-11-03T21:34:12.852Z,4.8
2018-11-03T21:37:13.219Z,4.8
2018-11-03T21:40:12.613Z,4.8
2018-11-03T21:43:12.958Z,4.8
2018-11-03T22:01:33.115Z,3.8
2018-11-03T22:04:33.398Z,3.8
2018-11-03T22:07:33.455Z,3.8
2018-11-03T22:10:33.323Z,3.8
2018-11-03T22:13:33.441Z,3.8
2018-11-03T22:16:33.138Z,3.8
2018-11-03T22:19:33.539Z,3.8
2018-11-03T22:22:33.349Z,3.8
2018-11-03T22:25:33.562Z,3.8
2018-11-03T22:28:33.341Z,3.8
2018-11-03T22:31:33.279Z,3.8
2018-11-03T22:34:33.160Z,3.8
2018-11-03T22:37:33.259Z,3.8
2018-11-03T22:40:33.195Z,3.8
2018-11-03T22:43:33.158Z,3.8
2018-11-03T22:46:33.264Z,3.8
2018-11-03T22:49:33.117Z,3.8
2018-11-03T22:52:34.095Z,3.8
2018-11-03T22:55:33.404Z,3.8
2018-11-03T22:58:33.318Z,3.8
2018-11-03T23:01:33.523Z,3.7
2018-11-03T23:04:33.406Z,3.7
2018-11-03T23:07:33.444Z,3.7
2018-11-03T23:10:33.300Z,3.7
2018-11-03T23:13:34.844Z,3.7
2018-11-03T23:16:33.532Z,3.7
2018-11-03T23:19:33.713Z,3.7
2018-11-03T23:22:33.179Z,3.7
2018-11-03T23:25:33.277Z,3.7
2018-11-03T23:28:33.108Z,3.7
2018-11-03T23:31:33.211Z,3.7
2018-11-03T23:34:33.424Z,3.7
2018-11-03T23:37:33.303Z,3.7
2018-11-03T23:40:34.352Z,3.7
2018-11-03T23:43:33.500Z,3.7
2018-11-03T23:46:33.445Z,3.7
2018-11-03T23:49:33.551Z,3.7
2018-11-03T23:52:33.099Z,3.7
2018-11-03T23:55:33.196Z,3.7
2018-11-03T23:58:33.356Z,3.7
